createdAt,value
2023-04-18T00:01:44.879Z,16.75
2023-04-18T00:04:12.437Z,16.08
2023-04-18T00:06:39.578Z,16.25
2023-04-18T00:09:06.354Z,14.80
2023-04-18T00:11:33.351Z,16.73
2023-04-18T00:14:00.278Z,14.77
2023-04-18T00:16:28.447Z,14.93
2023-04-18T00:18:57.194Z,16.73
2023-04-18T00:21:25.776Z,14.40
2023-04-18T00:23:52.881Z,15.00
2023-04-18T00:26:19.826Z,16.50
2023-04-18T00:28:48.244Z,15.45
2023-04-18T00:31:15.004Z,14.30
2023-04-18T00:33:41.802Z,17.05
2023-04-18T00:36:08.833Z,16.20
2023-04-18T00:38:35.778Z,13.43
2023-04-18T00:41:02.801Z,15.00
2023-04-18T00:43:29.753Z,14.75
2023-04-18T00:45:57.258Z,16.23
2023-04-18T00:48:25.055Z,13.25
2023-04-18T00:50:54.521Z,17.58
2023-04-18T00:53:21.901Z,17.70
2023-04-18T00:55:48.940Z,14.23
2023-04-18T00:58:15.965Z,16.25
2023-04-18T01:00:43.021Z,14.95
2023-04-18T01:03:14.475Z,14.73
2023-04-18T01:05:42.445Z,15.75
2023-04-18T01:08:09.248Z,14.45
2023-04-18T01:10:36.172Z,13.65
2023-04-18T01:13:17.510Z,14.43
2023-04-18T01:15:45.984Z,15.23
2023-04-18T01:18:17.618Z,16.38
2023-04-18T01:20:48.644Z,12.80
2023-04-18T01:23:16.649Z,14.57
2023-04-18T01:25:44.022Z,14.40
2023-04-18T01:28:12.592Z,15.95
2023-04-18T01:30:39.306Z,15.00
2023-04-18T01:33:06.569Z,16.23
2023-04-18T01:35:33.735Z,17.27
2023-04-18T01:38:00.715Z,15.45
2023-04-18T01:40:27.576Z,14.95
2023-04-18T01:42:54.503Z,16.25
2023-04-18T01:45:22.381Z,16.27
2023-04-18T01:47:49.180Z,17.55
2023-04-18T01:50:16.012Z,15.02
2023-04-18T01:52:43.098Z,15.68
2023-04-18T01:55:10.440Z,16.83
2023-04-18T01:57:38.569Z,16.15
2023-04-18T02:00:06.394Z,17.52
2023-04-18T02:02:41.235Z,17.98
2023-04-18T02:05:08.766Z,16.92
2023-04-18T02:07:38.527Z,14.77
2023-04-18T02:10:05.838Z,15.57
2023-04-18T02:12:32.796Z,16.33
2023-04-18T02:14:59.964Z,15.30
2023-04-18T02:17:26.714Z,15.90
2023-04-18T02:19:54.527Z,18.73
2023-04-18T02:22:21.161Z,18.25
2023-04-18T02:24:47.765Z,14.57
2023-04-18T02:27:15.279Z,16.27
2023-04-18T02:29:41.908Z,17.73
2023-04-18T02:32:09.160Z,16.63
2023-04-18T02:34:36.598Z,18.17
2023-04-18T02:37:03.736Z,15.68
2023-04-18T02:39:31.803Z,17.52
2023-04-18T02:41:58.862Z,16.33
2023-04-18T02:44:25.608Z,18.00
2023-04-18T02:46:52.473Z,17.45
2023-04-18T02:49:19.215Z,14.50
2023-04-18T02:51:46.632Z,16.10
2023-04-18T02:54:13.753Z,16.35
2023-04-18T02:57:02.312Z,16.92
2023-04-18T03:02:39.951Z,15.40
2023-04-18T03:05:26.487Z,15.15
2023-04-18T03:07:56.757Z,15.52
2023-04-18T03:10:23.614Z,17.67
2023-04-18T03:12:50.627Z,18.83
2023-04-18T03:15:18.377Z,18.23
2023-04-18T03:17:46.346Z,17.92
2023-04-18T03:20:14.479Z,17.67
2023-04-18T03:22:41.322Z,18.58
2023-04-18T03:25:08.615Z,22.05
2023-04-18T03:27:45.382Z,18.90
2023-04-18T03:30:14.906Z,18.17
2023-04-18T03:32:44.296Z,16.90
2023-04-18T03:35:11.200Z,19.65
2023-04-18T03:37:38.465Z,19.95
2023-04-18T03:40:06.077Z,17.48
2023-04-18T03:42:32.938Z,17.95
2023-04-18T03:44:59.682Z,17.90
2023-04-18T03:47:26.948Z,18.02
2023-04-18T03:49:57.423Z,19.20
2023-04-18T03:52:27.512Z,19.20
2023-04-18T03:54:56.024Z,18.13
2023-04-18T03:57:26.409Z,20.15
2023-04-18T03:59:54.055Z,19.23
2023-04-18T04:02:21.473Z,19.10
2023-04-18T04:04:50.069Z,19.38
2023-04-18T04:07:16.981Z,18.48
2023-04-18T04:09:43.674Z,20.85
2023-04-18T04:12:10.351Z,18.45
2023-04-18T04:14:37.030Z,20.75
2023-04-18T04:17:03.852Z,19.88
2023-04-18T04:19:31.874Z,21.42
2023-04-18T04:22:08.269Z,21.35
2023-04-18T04:24:38.428Z,22.75
2023-04-18T04:27:05.897Z,21.50
2023-04-18T04:29:36.250Z,20.35
2023-04-18T04:32:05.752Z,25.85
2023-04-18T04:34:36.941Z,25.83
2023-04-18T04:37:06.114Z,21.30
2023-04-18T04:39:39.555Z,23.27
2023-04-18T04:42:25.126Z,21.42
2023-04-18T04:44:59.132Z,21.88
2023-04-18T04:47:26.311Z,25.45
2023-04-18T04:49:54.058Z,22.73
2023-04-18T04:52:20.736Z,21.98
2023-04-18T04:54:48.190Z,24.65
2023-04-18T04:57:18.011Z,23.58
2023-04-18T04:59:44.760Z,21.48
2023-04-18T05:02:12.224Z,23.92
2023-04-18T05:04:39.327Z,27.05
2023-04-18T05:07:06.193Z,22.08
2023-04-18T05:09:32.834Z,26.55
2023-04-18T05:11:59.575Z,22.88
2023-04-18T05:14:26.459Z,21.17
2023-04-18T05:16:53.180Z,19.90
2023-04-18T05:19:19.858Z,20.27
2023-04-18T05:21:46.693Z,20.15
2023-04-18T05:24:13.508Z,22.77
2023-04-18T05:26:40.526Z,21.63
2023-04-18T05:29:07.288Z,21.83
2023-04-18T05:31:34.111Z,21.73
2023-04-18T05:34:01.157Z,21.38
2023-04-18T05:36:27.840Z,23.02
2023-04-18T05:38:54.503Z,23.30
2023-04-18T05:41:21.272Z,21.38
2023-04-18T05:44:01.878Z,23.67
2023-04-18T05:46:32.182Z,20.50
2023-04-18T05:48:58.898Z,23.00
2023-04-18T05:51:26.520Z,23.60
2023-04-18T05:53:53.213Z,24.33
2023-04-18T05:56:20.031Z,22.77
2023-04-18T05:58:47.691Z,21.70
2023-04-18T06:01:14.446Z,23.13
2023-04-18T06:03:41.726Z,25.13
2023-04-18T06:06:08.694Z,22.92
2023-04-18T06:08:35.431Z,23.25
2023-04-18T06:11:02.326Z,22.65
2023-04-18T06:13:29.036Z,21.90
2023-04-18T06:15:55.786Z,24.67
2023-04-18T06:18:22.463Z,24.20
2023-04-18T06:20:49.409Z,20.40
2023-04-18T06:23:16.795Z,25.30
2023-04-18T06:25:43.586Z,23.25
2023-04-18T06:28:10.435Z,22.63
2023-04-18T06:30:37.296Z,23.48
2023-04-18T06:33:04.035Z,24.23
2023-04-18T06:35:31.251Z,23.90
2023-04-18T06:37:57.981Z,26.70
2023-04-18T06:40:24.619Z,23.58
2023-04-18T06:42:51.695Z,21.20
2023-04-18T06:45:18.490Z,21.88
2023-04-18T06:47:45.601Z,23.52
2023-04-18T06:50:12.333Z,23.27
2023-04-18T06:52:42.601Z,24.27
2023-04-18T06:55:09.513Z,23.33
2023-04-18T06:57:36.452Z,22.65
2023-04-18T07:00:04.974Z,21.50
2023-04-18T07:02:31.976Z,22.15
2023-04-18T07:04:58.658Z,23.13
2023-04-18T07:07:26.521Z,20.73
2023-04-18T07:09:54.027Z,24.88
2023-04-18T07:12:20.918Z,19.27
2023-04-18T07:14:47.566Z,22.38
2023-04-18T07:17:14.298Z,23.98
2023-04-18T07:19:41.530Z,21.17
2023-04-18T07:22:08.244Z,21.92
2023-04-18T07:24:35.005Z,21.50
2023-04-18T07:27:03.377Z,23.00
2023-04-18T07:29:30.191Z,20.77
2023-04-18T07:31:58.051Z,22.90
2023-04-18T07:34:26.731Z,18.58
2023-04-18T07:36:53.476Z,21.88
2023-04-18T07:39:20.157Z,20.58
2023-04-18T07:41:46.837Z,25.20
2023-04-18T07:44:13.778Z,24.60
2023-04-18T07:46:40.969Z,21.23
2023-04-18T07:49:07.747Z,21.65
2023-04-18T07:51:35.101Z,23.88
2023-04-18T07:54:01.940Z,18.95
2023-04-18T07:56:28.765Z,22.02
2023-04-18T07:58:55.750Z,22.58
2023-04-18T08:01:24.736Z,20.80
2023-04-18T08:03:53.488Z,21.40
2023-04-18T08:06:21.459Z,23.40
2023-04-18T08:08:48.208Z,21.38
2023-04-18T08:11:14.908Z,21.02
2023-04-18T08:13:41.628Z,23.63
2023-04-18T08:16:08.904Z,21.58
2023-04-18T08:18:35.974Z,21.35
2023-04-18T08:21:02.639Z,24.15
2023-04-18T08:23:29.383Z,20.85
2023-04-18T08:25:56.074Z,23.40
2023-04-18T08:28:23.063Z,20.50
2023-04-18T08:30:50.460Z,22.25
2023-04-18T08:33:18.130Z,20.00
2023-04-18T08:35:44.833Z,18.98
2023-04-18T08:38:11.562Z,19.25
2023-04-18T08:40:38.669Z,21.77
2023-04-18T08:43:12.374Z,19.13
2023-04-18T08:45:40.202Z,18.70
2023-04-18T08:48:07.772Z,19.92
2023-04-18T08:50:34.555Z,19.75
2023-04-18T08:53:01.551Z,20.58
2023-04-18T08:55:28.319Z,20.88
2023-04-18T08:57:55.706Z,20.48
2023-04-18T09:00:23.733Z,21.90
2023-04-18T09:02:55.176Z,17.08
2023-04-18T09:05:23.204Z,17.45
2023-04-18T09:07:53.184Z,17.10
2023-04-18T09:10:29.018Z,18.15
2023-04-18T09:12:57.818Z,16.55
2023-04-18T09:15:29.452Z,16.13
2023-04-18T09:17:58.571Z,17.50
2023-04-18T09:20:41.536Z,16.98
2023-04-18T09:23:11.035Z,14.68
2023-04-18T09:25:45.471Z,17.15
2023-04-18T09:28:28.262Z,17.13
2023-04-18T09:31:09.357Z,17.60
2023-04-18T09:33:37.885Z,18.13
2023-04-18T09:36:17.582Z,17.65
2023-04-18T09:38:44.491Z,16.52
2023-04-18T09:41:12.965Z,18.30
2023-04-18T09:43:39.671Z,13.82
2023-04-18T09:46:07.963Z,17.27
2023-04-18T09:48:35.329Z,17.35
2023-04-18T09:51:10.840Z,16.52
2023-04-18T09:53:40.328Z,15.38
2023-04-18T09:56:12.777Z,15.50
2023-04-18T09:58:42.237Z,16.00
2023-04-18T10:01:09.415Z,15.02
2023-04-18T10:03:45.382Z,16.85
2023-04-18T10:06:16.256Z,16.23
2023-04-18T10:08:45.739Z,15.38
2023-04-18T10:11:12.577Z,15.30
2023-04-18T10:13:43.216Z,15.07
2023-04-18T10:16:11.749Z,14.10
2023-04-18T10:18:38.684Z,15.68
2023-04-18T10:21:05.817Z,15.75
2023-04-18T10:23:32.558Z,15.02
2023-04-18T10:25:59.416Z,12.93
2023-04-18T10:28:27.795Z,12.60
2023-04-18T10:31:02.970Z,13.20
2023-04-18T10:33:37.306Z,12.90
2023-04-18T10:36:08.915Z,13.77
2023-04-18T10:38:38.914Z,11.45
2023-04-18T10:41:49.470Z,10.90
2023-04-18T10:44:25.022Z,12.13
2023-04-18T10:46:51.852Z,10.40
2023-04-18T10:49:32.593Z,13.50
2023-04-18T10:52:01.661Z,11.98
2023-04-18T10:54:40.765Z,9.88
2023-04-18T10:57:09.085Z,13.35
2023-04-18T10:59:41.318Z,9.80
2023-04-18T11:04:59.704Z,11.45
2023-04-18T11:07:33.075Z,11.40
2023-04-18T11:09:59.977Z,11.90
2023-04-18T11:12:34.551Z,12.43
2023-04-18T11:15:09.254Z,11.80
2023-04-18T11:17:36.208Z,11.00
2023-04-18T11:20:09.180Z,9.80
2023-04-18T11:22:46.182Z,8.93
2023-04-18T11:25:13.267Z,9.07
2023-04-18T11:27:48.311Z,11.20
2023-04-18T11:30:15.414Z,9.52
2023-04-18T11:32:42.235Z,10.48
2023-04-18T11:35:10.671Z,8.45
2023-04-18T11:37:38.672Z,10.18
2023-04-18T11:40:08.683Z,8.57
2023-04-18T11:42:37.482Z,7.70
2023-04-18T11:45:08.867Z,11.40
2023-04-18T11:47:35.598Z,10.30
2023-04-18T11:50:06.816Z,7.78
2023-04-18T11:52:35.269Z,10.15
2023-04-18T11:55:19.561Z,9.05
2023-04-18T11:58:04.583Z,8.05
2023-04-18T12:00:34.429Z,8.10
2023-04-18T12:03:04.569Z,8.32
2023-04-18T12:05:33.604Z,9.93
2023-04-18T12:08:28.072Z,8.65
2023-04-18T12:10:55.355Z,9.27
2023-04-18T12:13:26.869Z,7.78
2023-04-18T12:15:54.623Z,9.82
2023-04-18T12:18:21.573Z,9.15
2023-04-18T12:20:54.309Z,9.60
2023-04-18T12:23:48.176Z,9.38
2023-04-18T12:26:18.332Z,9.00
2023-04-18T12:28:46.473Z,7.90
2023-04-18T12:31:13.226Z,6.97
2023-04-18T12:33:39.895Z,7.47
2023-04-18T12:36:08.592Z,10.55
2023-04-18T12:38:35.661Z,8.00
2023-04-18T12:41:02.420Z,9.20
2023-04-18T12:43:31.750Z,10.25
2023-04-18T12:45:59.552Z,7.60
2023-04-18T12:48:26.217Z,9.35
2023-04-18T12:50:52.895Z,9.45
2023-04-18T12:53:19.640Z,8.02
2023-04-18T12:55:46.357Z,8.45
2023-04-18T12:58:18.712Z,9.68
2023-04-18T13:00:45.979Z,8.77
2023-04-18T13:03:13.553Z,8.77
2023-04-18T13:05:40.561Z,8.30
2023-04-18T13:08:16.031Z,9.13
2023-04-18T13:10:44.416Z,8.30
2023-04-18T13:13:11.207Z,7.93
2023-04-18T13:15:38.286Z,8.88
2023-04-18T13:18:06.705Z,9.68
2023-04-18T13:20:34.464Z,8.43
2023-04-18T13:23:03.225Z,8.02
2023-04-18T13:25:30.074Z,8.75
2023-04-18T13:27:58.513Z,9.30
2023-04-18T13:30:25.455Z,8.70
2023-04-18T13:32:52.267Z,8.18
2023-04-18T13:35:19.067Z,7.18
2023-04-18T13:37:46.355Z,8.13
2023-04-18T13:40:13.775Z,7.38
2023-04-18T13:42:40.544Z,7.82
2023-04-18T13:45:07.713Z,8.57
2023-04-18T13:47:34.988Z,9.23
2023-04-18T13:50:01.893Z,7.82
2023-04-18T13:52:28.628Z,8.18
2023-04-18T13:54:55.547Z,8.68
2023-04-18T13:57:23.348Z,9.02
2023-04-18T13:59:50.130Z,10.20
2023-04-18T14:02:17.086Z,8.23
2023-04-18T14:04:43.949Z,7.63
2023-04-18T14:07:10.811Z,8.82
2023-04-18T14:09:37.538Z,8.10
2023-04-18T14:12:04.674Z,7.90
2023-04-18T14:14:31.412Z,7.03
2023-04-18T14:16:58.140Z,7.47
2023-04-18T14:19:25.121Z,7.22
2023-04-18T14:21:51.940Z,6.85
2023-04-18T14:24:18.723Z,10.02
2023-04-18T14:26:45.465Z,7.90
2023-04-18T14:29:12.502Z,7.72
2023-04-18T14:31:39.386Z,7.10
2023-04-18T14:34:06.602Z,7.82
2023-04-18T14:36:33.297Z,7.15
2023-04-18T14:39:00.030Z,7.70
2023-04-18T14:41:26.957Z,7.32
2023-04-18T14:43:53.645Z,7.95
2023-04-18T14:46:20.995Z,7.75
2023-04-18T14:48:47.916Z,8.25
2023-04-18T14:51:17.409Z,6.82
2023-04-18T14:53:44.947Z,6.40
2023-04-18T14:56:11.870Z,7.07
2023-04-18T14:58:38.560Z,7.78
2023-04-18T15:01:05.558Z,6.28
2023-04-18T15:03:33.181Z,7.55
2023-04-18T15:06:00.212Z,8.00
2023-04-18T15:08:27.042Z,8.65
2023-04-18T15:10:53.755Z,7.18
2023-04-18T15:13:20.626Z,7.47
2023-04-18T15:15:54.575Z,7.20
2023-04-18T15:18:21.320Z,6.53
2023-04-18T15:20:48.008Z,7.38
2023-04-18T15:23:15.099Z,7.25
2023-04-18T15:25:42.795Z,6.57
2023-04-18T15:28:09.565Z,6.28
2023-04-18T15:30:36.524Z,7.70
2023-04-18T15:33:03.318Z,6.10
2023-04-18T15:35:30.114Z,5.97
2023-04-18T15:37:57.672Z,7.15
2023-04-18T15:40:24.465Z,7.80
2023-04-18T15:42:53.573Z,6.03
2023-04-18T15:45:21.384Z,7.47
2023-04-18T15:47:48.458Z,6.28
2023-04-18T15:50:16.334Z,5.65
2023-04-18T15:52:43.563Z,7.13
2023-04-18T15:55:12.344Z,6.20
2023-04-18T15:57:39.608Z,5.93
2023-04-18T16:00:11.968Z,5.68
2023-04-18T16:02:38.875Z,8.55
2023-04-18T16:05:06.179Z,5.13
2023-04-18T16:07:32.899Z,6.35
2023-04-18T16:10:02.608Z,7.38
2023-04-18T16:12:29.717Z,7.28
2023-04-18T16:14:56.429Z,6.38
2023-04-18T16:17:23.171Z,6.20
2023-04-18T16:19:49.925Z,7.95
2023-04-18T16:22:16.688Z,7.28
2023-04-18T16:24:43.345Z,7.15
2023-04-18T16:27:10.158Z,9.10
2023-04-18T16:29:36.796Z,6.38
2023-04-18T16:32:03.661Z,7.68
2023-04-18T16:34:30.514Z,8.07
2023-04-18T16:36:57.193Z,8.95
2023-04-18T16:39:23.935Z,8.70
2023-04-18T16:41:51.245Z,8.25
2023-04-18T16:44:17.967Z,8.20
2023-04-18T16:46:44.707Z,8.80
2023-04-18T16:49:11.608Z,8.32
2023-04-18T16:51:38.697Z,7.95
2023-04-18T16:54:06.071Z,7.95
2023-04-18T16:56:33.940Z,9.40
2023-04-18T16:59:00.638Z,8.77
2023-04-18T17:01:27.409Z,8.20
2023-04-18T17:03:54.170Z,9.30
2023-04-18T17:06:22.805Z,9.20
2023-04-18T17:08:49.705Z,16.77
2023-04-18T17:11:16.403Z,12.95
2023-04-18T17:13:43.083Z,9.23
2023-04-18T17:16:09.839Z,10.05
2023-04-18T17:18:37.157Z,9.75
2023-04-18T17:21:04.067Z,8.40
2023-04-18T17:23:32.787Z,9.52
2023-04-18T17:25:59.934Z,10.70
2023-04-18T17:28:26.655Z,9.05
2023-04-18T17:30:53.392Z,10.38
2023-04-18T17:33:21.204Z,9.35
2023-04-18T17:35:48.321Z,10.57
2023-04-18T17:38:16.429Z,11.27
2023-04-18T17:40:43.146Z,9.80
2023-04-18T17:43:11.225Z,11.48
2023-04-18T17:45:38.674Z,9.57
2023-04-18T17:48:05.622Z,10.30
2023-04-18T17:50:32.377Z,9.70
2023-04-18T17:52:59.083Z,9.32
2023-04-18T17:55:26.712Z,9.57
2023-04-18T17:57:53.354Z,11.15
2023-04-18T18:00:20.235Z,11.18
2023-04-18T18:02:47.129Z,11.15
2023-04-18T18:05:13.981Z,14.38
2023-04-18T18:07:43.625Z,16.88
2023-04-18T18:10:11.604Z,12.40
2023-04-18T18:12:39.921Z,10.68
2023-04-18T18:15:08.246Z,12.40
2023-04-18T18:17:35.184Z,9.05
2023-04-18T18:20:02.048Z,10.57
2023-04-18T18:22:28.713Z,10.93
2023-04-18T18:24:56.099Z,14.55
2023-04-18T18:27:22.805Z,8.85
2023-04-18T18:29:50.447Z,13.88
2023-04-18T18:32:17.155Z,12.80
2023-04-18T18:34:43.854Z,19.73
2023-04-18T18:37:10.509Z,38.05
2023-04-18T18:39:37.408Z,12.90
2023-04-18T18:42:04.165Z,18.05
2023-04-18T18:44:30.800Z,13.43
2023-04-18T18:46:58.820Z,12.18
2023-04-18T18:49:26.686Z,14.70
2023-04-18T18:51:53.576Z,18.70
2023-04-18T18:54:20.354Z,15.23
2023-04-18T18:56:47.070Z,16.35
2023-04-18T18:59:14.056Z,14.40
2023-04-18T19:01:41.225Z,10.32
2023-04-18T19:04:08.103Z,10.57
2023-04-18T19:06:35.633Z,8.18
2023-04-18T19:09:02.388Z,8.55
2023-04-18T19:11:29.681Z,10.02
2023-04-18T19:13:56.449Z,17.95
2023-04-18T19:16:23.199Z,21.83
2023-04-18T19:18:50.723Z,15.32
2023-04-18T19:21:17.533Z,10.68
2023-04-18T19:23:44.229Z,11.15
2023-04-18T19:26:10.911Z,9.60
2023-04-18T19:28:37.638Z,8.65
2023-04-18T19:31:04.528Z,8.48
2023-04-18T19:33:31.200Z,7.63
2023-04-18T19:35:58.451Z,8.50
2023-04-18T19:38:25.122Z,11.77
2023-04-18T19:40:51.884Z,9.80
2023-04-18T19:43:18.644Z,9.18
2023-04-18T19:45:45.375Z,13.20
2023-04-18T19:48:12.126Z,9.90
2023-04-18T19:50:40.387Z,10.40
2023-04-18T19:53:07.180Z,15.32
2023-04-18T19:55:34.160Z,12.35
2023-04-18T19:58:00.910Z,11.70
2023-04-18T20:00:28.495Z,11.45
2023-04-18T20:02:55.539Z,9.75
2023-04-18T20:05:22.712Z,9.70
2023-04-18T20:07:49.459Z,15.20
2023-04-18T20:10:21.785Z,12.07
2023-04-18T20:15:17.081Z,11.52
2023-04-18T20:17:43.845Z,8.35
2023-04-18T20:20:11.467Z,11.35
2023-04-18T20:22:40.446Z,11.35
2023-04-18T20:25:07.365Z,9.68
2023-04-18T20:27:34.025Z,14.60
2023-04-18T20:30:00.709Z,9.75
2023-04-18T20:32:28.139Z,13.40
2023-04-18T20:34:54.824Z,9.07
2023-04-18T20:37:21.775Z,8.23
2023-04-18T20:39:48.440Z,11.20
2023-04-18T20:42:15.866Z,20.10
2023-04-18T20:44:46.906Z,17.67
2023-04-18T20:47:15.451Z,13.90
2023-04-18T20:49:42.616Z,19.02
2023-04-18T20:52:14.502Z,12.68
2023-04-18T20:54:43.946Z,10.77
2023-04-18T20:57:10.719Z,13.05
2023-04-18T20:59:37.394Z,13.73
2023-04-18T21:02:04.451Z,13.02
2023-04-18T21:04:31.340Z,10.88
2023-04-18T21:06:58.216Z,12.45
2023-04-18T21:09:24.988Z,10.80
2023-04-18T21:11:51.676Z,13.85
2023-04-18T21:14:18.370Z,12.82
2023-04-18T21:16:45.029Z,39.65
2023-04-18T21:19:11.696Z,21.05
2023-04-18T21:21:38.420Z,23.60
2023-04-18T21:24:05.757Z,15.13
2023-04-18T21:26:32.507Z,15.68
2023-04-18T21:29:01.486Z,11.13
2023-04-18T21:31:31.034Z,12.88
2023-04-18T21:33:59.729Z,16.75
2023-04-18T21:36:28.220Z,11.90
2023-04-18T21:38:56.466Z,10.57
2023-04-18T21:41:24.226Z,12.02
2023-04-18T21:43:51.077Z,9.55
2023-04-18T21:46:18.401Z,12.60
2023-04-18T21:48:46.589Z,14.13
2023-04-18T21:51:15.718Z,11.18
2023-04-18T21:53:42.752Z,14.07
2023-04-18T21:56:09.692Z,10.43
2023-04-18T21:58:36.510Z,10.15
2023-04-18T22:01:03.400Z,9.27
2023-04-18T22:03:31.647Z,21.75
2023-04-18T22:05:58.957Z,14.80
2023-04-18T22:08:26.330Z,14.32
2023-04-18T22:10:55.233Z,13.05
2023-04-18T22:13:22.783Z,10.43
2023-04-18T22:15:51.571Z,14.55
2023-04-18T22:18:19.385Z,10.00
2023-04-18T22:20:47.033Z,10.38
2023-04-18T22:23:14.339Z,10.70
2023-04-18T22:25:41.280Z,9.23
2023-04-18T22:28:08.192Z,11.10
2023-04-18T22:30:35.160Z,8.77
2023-04-18T22:33:01.922Z,10.90
2023-04-18T22:35:28.701Z,7.47
2023-04-18T22:37:56.246Z,9.35
2023-04-18T22:40:23.022Z,8.65
2023-04-18T22:42:51.964Z,9.73
2023-04-18T22:45:19.551Z,11.73
2023-04-18T22:47:46.830Z,9.68
2023-04-18T22:50:14.127Z,11.35
2023-04-18T22:52:41.387Z,8.88
2023-04-18T22:55:08.903Z,8.85
2023-04-18T22:57:35.699Z,11.32
2023-04-18T23:00:02.778Z,9.57
2023-04-18T23:02:29.576Z,8.77
2023-04-18T23:04:58.443Z,9.32
2023-04-18T23:07:25.398Z,9.43
2023-04-18T23:09:52.302Z,10.70
2023-04-18T23:12:19.053Z,9.82
2023-04-18T23:14:45.905Z,8.93
2023-04-18T23:17:12.602Z,9.20
2023-04-18T23:19:39.355Z,10.05
2023-04-18T23:22:06.056Z,10.15
2023-04-18T23:24:32.782Z,9.68
2023-04-18T23:26:59.517Z,9.23
2023-04-18T23:29:26.229Z,10.00
2023-04-18T23:31:52.990Z,11.45
2023-04-18T23:34:19.819Z,10.80
2023-04-18T23:36:46.782Z,16.25
2023-04-18T23:39:13.784Z,10.48
2023-04-18T23:41:41.026Z,10.82
2023-04-18T23:44:08.008Z,9.93
2023-04-18T23:46:36.356Z,10.02
2023-04-18T23:49:03.660Z,10.18
2023-04-18T23:51:31.269Z,10.82
2023-04-18T23:53:57.916Z,10.65
2023-04-18T23:56:24.694Z,12.23
2023-04-18T23:58:51.775Z,12.73
